sensor_id;sensor_type;location;lat;lon;timestamp;pressure;altitude;pressure_sealevel;temperature;humidity
76285;BME280;65096;50.998;7.098;2023-02-26T00:00:00;100995.72;;;0.05;50.17
76285;BME280;65096;50.998;7.098;2023-02-26T00:02:29;100993.81;;;0.01;50.26
76285;BME280;65096;50.998;7.098;2023-02-26T00:04:57;101003.09;;;0.00;50.72
76285;BME280;65096;50.998;7.098;2023-02-26T00:07:23;100995.28;;;-0.03;50.60
76285;BME280;65096;50.998;7.098;2023-02-26T00:09:53;100996.91;;;-0.05;50.67
76285;BME280;65096;50.998;7.098;2023-02-26T00:12:21;101002.75;;;-0.06;50.96
76285;BME280;65096;50.998;7.098;2023-02-26T00:14:48;101016.94;;;-0.09;50.97
76285;BME280;65096;50.998;7.098;2023-02-26T00:17:28;100994.50;;;-0.18;52.08
76285;BME280;65096;50.998;7.098;2023-02-26T00:19:59;101021.81;;;-0.12;51.12
76285;BME280;65096;50.998;7.098;2023-02-26T00:22:26;101020.16;;;-0.12;50.71
76285;BME280;65096;50.998;7.098;2023-02-26T00:24:53;101034.69;;;-0.09;50.89
76285;BME280;65096;50.998;7.098;2023-02-26T00:27:20;101036.34;;;-0.10;50.59
76285;BME280;65096;50.998;7.098;2023-02-26T00:29:47;101049.09;;;-0.08;51.17
76285;BME280;65096;50.998;7.098;2023-02-26T00:32:15;101054.25;;;-0.07;51.27
76285;BME280;65096;50.998;7.098;2023-02-26T00:34:43;101055.03;;;-0.08;50.92
76285;BME280;65096;50.998;7.098;2023-02-26T00:37:18;101051.63;;;-0.08;51.55
76285;BME280;65096;50.998;7.098;2023-02-26T00:39:55;101063.41;;;-0.09;51.14
76285;BME280;65096;50.998;7.098;2023-02-26T00:42:25;101066.84;;;-0.08;51.29
76285;BME280;65096;50.998;7.098;2023-02-26T00:44:53;101060.88;;;-0.09;51.33
76285;BME280;65096;50.998;7.098;2023-02-26T00:47:24;101071.97;;;-0.07;51.88
76285;BME280;65096;50.998;7.098;2023-02-26T00:50:03;101074.50;;;-0.07;52.11
76285;BME280;65096;50.998;7.098;2023-02-26T00:52:38;101076.25;;;-0.06;51.97
76285;BME280;65096;50.998;7.098;2023-02-26T00:55:08;101072.06;;;-0.05;51.65
76285;BME280;65096;50.998;7.098;2023-02-26T00:57:35;101082.28;;;-0.04;51.42
76285;BME280;65096;50.998;7.098;2023-02-26T01:00:02;101067.56;;;-0.11;51.71
76285;BME280;65096;50.998;7.098;2023-02-26T01:02:31;101073.88;;;-0.03;51.85
76285;BME280;65096;50.998;7.098;2023-02-26T01:04:58;101077.22;;;-0.04;52.19
76285;BME280;65096;50.998;7.098;2023-02-26T01:07:27;101083.16;;;-0.03;51.56
76285;BME280;65096;50.998;7.098;2023-02-26T01:09:56;101089.09;;;-0.03;51.94
76285;BME280;65096;50.998;7.098;2023-02-26T01:12:23;101083.16;;;-0.03;52.05
76285;BME280;65096;50.998;7.098;2023-02-26T01:14:50;101094.16;;;-0.03;51.94
76285;BME280;65096;50.998;7.098;2023-02-26T01:17:20;101087.28;;;-0.05;52.82
76285;BME280;65096;50.998;7.098;2023-02-26T01:19:51;101096.44;;;-0.07;52.83
76285;BME280;65096;50.998;7.098;2023-02-26T01:22:21;101102.41;;;-0.07;52.57
76285;BME280;65096;50.998;7.098;2023-02-26T01:24:53;101092.91;;;-0.11;52.16
76285;BME280;65096;50.998;7.098;2023-02-26T01:27:23;101098.91;;;-0.09;52.76
76285;BME280;65096;50.998;7.098;2023-02-26T01:29:50;101097.09;;;-0.11;52.11
76285;BME280;65096;50.998;7.098;2023-02-26T01:32:21;101098.72;;;-0.12;52.36
76285;BME280;65096;50.998;7.098;2023-02-26T01:34:51;101097.97;;;-0.11;54.93
76285;BME280;65096;50.998;7.098;2023-02-26T01:37:25;101100.22;;;-0.15;52.33
76285;BME280;65096;50.998;7.098;2023-02-26T01:40:14;101090.16;;;-0.14;54.34
76285;BME280;65096;50.998;7.098;2023-02-26T01:42:51;101087.47;;;-0.17;53.02
76285;BME280;65096;50.998;7.098;2023-02-26T01:45:25;101081.63;;;-0.16;52.71
76285;BME280;65096;50.998;7.098;2023-02-26T01:47:59;101082.56;;;-0.14;52.92
76285;BME280;65096;50.998;7.098;2023-02-26T01:50:28;101080.84;;;-0.15;53.93
76285;BME280;65096;50.998;7.098;2023-02-26T01:53:21;101082.31;;;-0.18;54.30
76285;BME280;65096;50.998;7.098;2023-02-26T01:55:51;101083.03;;;-0.21;53.38
76285;BME280;65096;50.998;7.098;2023-02-26T01:58:21;101077.53;;;-0.28;52.94
76285;BME280;65096;50.998;7.098;2023-02-26T02:00:49;101082.44;;;-0.31;53.13
76285;BME280;65096;50.998;7.098;2023-02-26T02:03:16;101090.09;;;-0.30;53.43
76285;BME280;65096;50.998;7.098;2023-02-26T02:05:47;101095.25;;;-0.28;53.96
76285;BME280;65096;50.998;7.098;2023-02-26T02:08:16;101096.78;;;-0.32;53.95
76285;BME280;65096;50.998;7.098;2023-02-26T02:10:43;101102.28;;;-0.39;52.94
76285;BME280;65096;50.998;7.098;2023-02-26T02:13:23;101106.63;;;-0.36;53.19
76285;BME280;65096;50.998;7.098;2023-02-26T02:16:00;101102.63;;;-0.33;54.35
76285;BME280;65096;50.998;7.098;2023-02-26T02:18:36;101104.81;;;-0.39;53.79
76285;BME280;65096;50.998;7.098;2023-02-26T02:21:39;101112.50;;;-0.37;54.48
76285;BME280;65096;50.998;7.098;2023-02-26T02:24:12;101113.38;;;-0.37;53.52
76285;BME280;65096;50.998;7.098;2023-02-26T02:26:55;101120.09;;;-0.37;53.57
76285;BME280;65096;50.998;7.098;2023-02-26T02:29:40;101123.50;;;-0.37;54.25
76285;BME280;65096;50.998;7.098;2023-02-26T02:32:15;101120.91;;;-0.38;53.97
76285;BME280;65096;50.998;7.098;2023-02-26T02:34:47;101118.09;;;-0.43;53.51
76285;BME280;65096;50.998;7.098;2023-02-26T02:37:19;101122.28;;;-0.43;54.29
76285;BME280;65096;50.998;7.098;2023-02-26T02:39:49;101126.38;;;-0.45;54.29
76285;BME280;65096;50.998;7.098;2023-02-26T02:42:23;101125.41;;;-0.47;54.11
76285;BME280;65096;50.998;7.098;2023-02-26T02:44:56;101135.56;;;-0.47;54.24
76285;BME280;65096;50.998;7.098;2023-02-26T02:47:26;101134.63;;;-0.49;53.96
76285;BME280;65096;50.998;7.098;2023-02-26T02:50:00;101140.53;;;-0.49;53.91
76285;BME280;65096;50.998;7.098;2023-02-26T02:52:32;101141.41;;;-0.48;53.79
76285;BME280;65096;50.998;7.098;2023-02-26T02:55:04;101148.31;;;-0.46;54.29
76285;BME280;65096;50.998;7.098;2023-02-26T02:57:37;101144.84;;;-0.48;54.10
76285;BME280;65096;50.998;7.098;2023-02-26T03:00:08;101124.66;;;-0.61;54.26
76285;BME280;65096;50.998;7.098;2023-02-26T03:02:40;101140.28;;;-0.53;53.89
76285;BME280;65096;50.998;7.098;2023-02-26T03:05:09;101141.16;;;-0.53;54.34
76285;BME280;65096;50.998;7.098;2023-02-26T03:07:42;101147.88;;;-0.53;54.64
76285;BME280;65096;50.998;7.098;2023-02-26T03:10:10;101153.75;;;-0.54;53.74
76285;BME280;65096;50.998;7.098;2023-02-26T03:12:38;101159.66;;;-0.54;54.03
76285;BME280;65096;50.998;7.098;2023-02-26T03:15:06;101159.56;;;-0.55;53.81
76285;BME280;65096;50.998;7.098;2023-02-26T03:17:42;101161.25;;;-0.56;54.26
76285;BME280;65096;50.998;7.098;2023-02-26T03:20:18;101163.78;;;-0.56;53.83
76285;BME280;65096;50.998;7.098;2023-02-26T03:22:55;101162.91;;;-0.56;54.75
76285;BME280;65096;50.998;7.098;2023-02-26T03:25:28;101173.84;;;-0.57;54.69
76285;BME280;65096;50.998;7.098;2023-02-26T03:28:01;101176.06;;;-0.62;54.50
76285;BME280;65096;50.998;7.098;2023-02-26T03:30:36;101177.66;;;-0.64;54.00
76285;BME280;65096;50.998;7.098;2023-02-26T03:33:10;101178.50;;;-0.63;55.64
76285;BME280;65096;50.998;7.098;2023-02-26T03:35:44;101180.97;;;-0.65;54.75
76285;BME280;65096;50.998;7.098;2023-02-26T03:38:16;101193.44;;;-0.68;54.43
76285;BME280;65096;50.998;7.098;2023-02-26T03:40:48;101194.25;;;-0.69;54.74
76285;BME280;65096;50.998;7.098;2023-02-26T03:43:21;101195.88;;;-0.69;54.90
76285;BME280;65096;50.998;7.098;2023-02-26T03:45:51;101198.16;;;-0.74;54.33
76285;BME280;65096;50.998;7.098;2023-02-26T03:48:25;101204.19;;;-0.72;53.99
76285;BME280;65096;50.998;7.098;2023-02-26T03:50:57;101210.13;;;-0.71;54.43
76285;BME280;65096;50.998;7.098;2023-02-26T03:53:29;101206.63;;;-0.73;54.42
76285;BME280;65096;50.998;7.098;2023-02-26T03:56:02;101219.22;;;-0.75;54.44
76285;BME280;65096;50.998;7.098;2023-02-26T03:58:32;101216.69;;;-0.75;54.68
76285;BME280;65096;50.998;7.098;2023-02-26T04:01:03;101214.81;;;-0.77;55.26
76285;BME280;65096;50.998;7.098;2023-02-26T04:03:34;101221.44;;;-0.79;55.18
76285;BME280;65096;50.998;7.098;2023-02-26T04:06:04;101224.69;;;-0.82;54.57
76285;BME280;65096;50.998;7.098;2023-02-26T04:08:31;101217.00;;;-0.83;54.32
76285;BME280;65096;50.998;7.098;2023-02-26T04:11:04;101221.09;;;-0.85;54.20
76285;BME280;65096;50.998;7.098;2023-02-26T04:13:31;101231.22;;;-0.85;54.62
76285;BME280;65096;50.998;7.098;2023-02-26T04:15:58;101230.94;;;-0.90;54.48
76285;BME280;65096;50.998;7.098;2023-02-26T04:18:25;101229.38;;;-0.88;54.68
76285;BME280;65096;50.998;7.098;2023-02-26T04:20:53;101224.16;;;-0.91;54.54
76285;BME280;65096;50.998;7.098;2023-02-26T04:23:19;101230.06;;;-0.91;55.37
76285;BME280;65096;50.998;7.098;2023-02-26T04:25:46;101224.81;;;-0.94;54.58
76285;BME280;65096;50.998;7.098;2023-02-26T04:28:13;101225.25;;;-1.01;55.08
76285;BME280;65096;50.998;7.098;2023-02-26T04:30:40;101233.69;;;-1.00;55.07
76285;BME280;65096;50.998;7.098;2023-02-26T04:33:06;101240.44;;;-1.01;55.98
76285;BME280;65096;50.998;7.098;2023-02-26T04:35:33;101240.13;;;-1.05;55.29
76285;BME280;65096;50.998;7.098;2023-02-26T04:38:01;101246.06;;;-1.05;55.17
76285;BME280;65096;50.998;7.098;2023-02-26T04:40:30;101243.28;;;-1.09;54.88
76285;BME280;65096;50.998;7.098;2023-02-26T04:42:57;101257.75;;;-1.07;54.47
76285;BME280;65096;50.998;7.098;2023-02-26T04:45:24;101252.78;;;-1.05;54.70
76285;BME280;65096;50.998;7.098;2023-02-26T04:47:51;101258.81;;;-1.03;55.30
76285;BME280;65096;50.998;7.098;2023-02-26T04:50:17;101256.91;;;-1.07;55.06
76285;BME280;65096;50.998;7.098;2023-02-26T04:52:44;101266.13;;;-1.08;55.59
76285;BME280;65096;50.998;7.098;2023-02-26T04:55:12;101271.91;;;-1.10;55.37
76285;BME280;65096;50.998;7.098;2023-02-26T04:57:39;101277.63;;;-1.13;55.29
76285;BME280;65096;50.998;7.098;2023-02-26T05:00:06;101276.88;;;-1.12;56.25
76285;BME280;65096;50.998;7.098;2023-02-26T05:02:33;101282.59;;;-1.14;55.86
76285;BME280;65096;50.998;7.098;2023-02-26T05:05:00;101262.38;;;-1.27;55.01
76285;BME280;65096;50.998;7.098;2023-02-26T05:07:27;101289.13;;;-1.18;55.41
76285;BME280;65096;50.998;7.098;2023-02-26T05:09:53;101293.31;;;-1.18;55.24
76285;BME280;65096;50.998;7.098;2023-02-26T05:12:21;101296.25;;;-1.25;55.21
76285;BME280;65096;50.998;7.098;2023-02-26T05:14:48;101293.53;;;-1.28;55.25
76285;BME280;65096;50.998;7.098;2023-02-26T05:17:15;101286.91;;;-1.26;55.47
76285;BME280;65096;50.998;7.098;2023-02-26T05:19:41;101304.03;;;-1.22;55.14
76285;BME280;65096;50.998;7.098;2023-02-26T05:22:08;101300.69;;;-1.21;55.07
76285;BME280;65096;50.998;7.098;2023-02-26T05:24:35;101302.38;;;-1.22;54.89
76285;BME280;65096;50.998;7.098;2023-02-26T05:27:02;101305.75;;;-1.21;55.50
76285;BME280;65096;50.998;7.098;2023-02-26T05:29:30;101314.41;;;-1.18;55.35
76285;BME280;65096;50.998;7.098;2023-02-26T05:31:56;101312.69;;;-1.19;55.07
76285;BME280;65096;50.998;7.098;2023-02-26T05:34:23;101320.28;;;-1.19;55.74
76285;BME280;65096;50.998;7.098;2023-02-26T05:36:50;101315.13;;;-1.20;56.87
76285;BME280;65096;50.998;7.098;2023-02-26T05:39:17;101321.06;;;-1.20;55.79
76285;BME280;65096;50.998;7.098;2023-02-26T05:41:43;101319.00;;;-1.25;55.33
76285;BME280;65096;50.998;7.098;2023-02-26T05:44:11;101331.06;;;-1.21;56.07
76285;BME280;65096;50.998;7.098;2023-02-26T05:46:40;101329.41;;;-1.21;56.08
76285;BME280;65096;50.998;7.098;2023-02-26T05:49:06;101330.31;;;-1.20;56.21
76285;BME280;65096;50.998;7.098;2023-02-26T05:51:33;101340.31;;;-1.22;55.80
76285;BME280;65096;50.998;7.098;2023-02-26T05:54:00;101337.00;;;-1.21;55.55
76285;BME280;65096;50.998;7.098;2023-02-26T05:56:26;101343.72;;;-1.21;56.16
76285;BME280;65096;50.998;7.098;2023-02-26T05:58:53;101334.97;;;-1.26;56.08
76285;BME280;65096;50.998;7.098;2023-02-26T06:01:22;101340.03;;;-1.26;56.50
76285;BME280;65096;50.998;7.098;2023-02-26T06:03:50;101343.31;;;-1.27;56.21
76285;BME280;65096;50.998;7.098;2023-02-26T06:06:17;101343.84;;;-1.33;56.18
76285;BME280;65096;50.998;7.098;2023-02-26T06:08:44;101350.81;;;-1.29;56.58
76285;BME280;65096;50.998;7.098;2023-02-26T06:11:11;101366.00;;;-1.29;55.92
76285;BME280;65096;50.998;7.098;2023-02-26T06:13:38;101361.13;;;-1.26;56.09
76285;BME280;65096;50.998;7.098;2023-02-26T06:16:05;101362.81;;;-1.26;56.03
76285;BME280;65096;50.998;7.098;2023-02-26T06:18:32;101366.97;;;-1.27;56.13
76285;BME280;65096;50.998;7.098;2023-02-26T06:21:00;101378.00;;;-1.26;56.22
76285;BME280;65096;50.998;7.098;2023-02-26T06:23:26;101372.03;;;-1.27;56.88
76285;BME280;65096;50.998;7.098;2023-02-26T06:25:53;101363.88;;;-1.36;56.09
76285;BME280;65096;50.998;7.098;2023-02-26T06:28:20;101381.19;;;-1.29;56.11
76285;BME280;65096;50.998;7.098;2023-02-26T06:30:48;101389.47;;;-1.31;56.58
76285;BME280;65096;50.998;7.098;2023-02-26T06:33:17;101385.75;;;-1.36;56.54
76285;BME280;65096;50.998;7.098;2023-02-26T06:35:44;101391.81;;;-1.34;56.24
76285;BME280;65096;50.998;7.098;2023-02-26T06:38:12;101396.97;;;-1.33;55.93
76285;BME280;65096;50.998;7.098;2023-02-26T06:40:39;101396.06;;;-1.33;56.13
76285;BME280;65096;50.998;7.098;2023-02-26T06:43:06;101405.81;;;-1.26;56.24
76285;BME280;65096;50.998;7.098;2023-02-26T06:45:32;101411.63;;;-1.27;55.75
76285;BME280;65096;50.998;7.098;2023-02-26T06:47:59;101420.13;;;-1.27;55.95
76285;BME280;65096;50.998;7.098;2023-02-26T06:50:26;101426.81;;;-1.27;56.65
76285;BME280;65096;50.998;7.098;2023-02-26T06:52:53;101435.84;;;-1.31;56.26
76285;BME280;65096;50.998;7.098;2023-02-26T06:55:21;101449.19;;;-1.33;56.03
76285;BME280;65096;50.998;7.098;2023-02-26T06:57:51;101455.44;;;-1.28;57.28
76285;BME280;65096;50.998;7.098;2023-02-26T07:00:18;101449.97;;;-1.34;57.02
76285;BME280;65096;50.998;7.098;2023-02-26T07:02:44;101450.53;;;-1.38;55.84
76285;BME280;65096;50.998;7.098;2023-02-26T07:05:11;101459.03;;;-1.38;55.96
76285;BME280;65096;50.998;7.098;2023-02-26T07:07:38;101464.38;;;-1.33;55.91
76285;BME280;65096;50.998;7.098;2023-02-26T07:10:05;101466.31;;;-1.29;55.98
76285;BME280;65096;50.998;7.098;2023-02-26T07:12:34;101469.53;;;-1.32;56.49
76285;BME280;65096;50.998;7.098;2023-02-26T07:15:03;101471.38;;;-1.29;56.75
76285;BME280;65096;50.998;7.098;2023-02-26T07:17:30;101479.69;;;-1.19;56.79
76285;BME280;65096;50.998;7.098;2023-02-26T07:19:57;101479.59;;;-1.20;56.68
76285;BME280;65096;50.998;7.098;2023-02-26T07:22:25;101483.09;;;-1.05;56.40
76285;BME280;65096;50.998;7.098;2023-02-26T07:24:51;101490.31;;;-0.98;56.92
76285;BME280;65096;50.998;7.098;2023-02-26T07:27:18;101495.75;;;-0.92;56.85
76285;BME280;65096;50.998;7.098;2023-02-26T07:29:46;101496.84;;;-0.88;56.63
76285;BME280;65096;50.998;7.098;2023-02-26T07:32:13;101499.66;;;-0.84;56.06
76285;BME280;65096;50.998;7.098;2023-02-26T07:34:39;101507.53;;;-0.79;56.69
76285;BME280;65096;50.998;7.098;2023-02-26T07:37:06;101518.84;;;-0.61;56.30
76285;BME280;65096;50.998;7.098;2023-02-26T07:39:33;101517.22;;;-0.48;56.01
76285;BME280;65096;50.998;7.098;2023-02-26T07:42:00;101506.19;;;-0.35;55.34
76285;BME280;65096;50.998;7.098;2023-02-26T07:44:27;101512.50;;;-0.16;55.28
76285;BME280;65096;50.998;7.098;2023-02-26T07:46:55;101515.38;;;-0.10;54.44
76285;BME280;65096;50.998;7.098;2023-02-26T07:49:22;101526.09;;;-0.01;54.18
76285;BME280;65096;50.998;7.098;2023-02-26T07:51:49;101524.13;;;0.08;53.72
76285;BME280;65096;50.998;7.098;2023-02-26T07:54:16;101534.31;;;0.23;53.12
76285;BME280;65096;50.998;7.098;2023-02-26T07:56:43;101532.41;;;0.33;52.89
76285;BME280;65096;50.998;7.098;2023-02-26T07:59:10;101523.69;;;0.43;53.73
76285;BME280;65096;50.998;7.098;2023-02-26T08:01:37;101529.69;;;0.58;53.72
76285;BME280;65096;50.998;7.098;2023-02-26T08:04:05;101539.69;;;0.84;53.38
76285;BME280;65096;50.998;7.098;2023-02-26T08:06:32;101530.94;;;1.08;52.74
76285;BME280;65096;50.998;7.098;2023-02-26T08:08:59;101538.03;;;1.43;52.42
76285;BME280;65096;50.998;7.098;2023-02-26T08:11:26;101534.31;;;1.67;51.58
76285;BME280;65096;50.998;7.098;2023-02-26T08:13:53;101528.22;;;1.79;51.52
76285;BME280;65096;50.998;7.098;2023-02-26T08:16:20;101538.28;;;1.92;50.92
76285;BME280;65096;50.998;7.098;2023-02-26T08:18:46;101536.56;;;2.08;49.40
76285;BME280;65096;50.998;7.098;2023-02-26T08:21:14;101540.78;;;2.39;50.86
76285;BME280;65096;50.998;7.098;2023-02-26T08:23:41;101538.00;;;2.67;47.79
76285;BME280;65096;50.998;7.098;2023-02-26T08:26:10;101542.06;;;2.97;48.94
76285;BME280;65096;50.998;7.098;2023-02-26T08:28:38;101538.13;;;3.19;47.02
76285;BME280;65096;50.998;7.098;2023-02-26T08:31:05;101536.25;;;3.15;47.73
76285;BME280;65096;50.998;7.098;2023-02-26T08:33:32;101554.75;;;2.95;48.92
76285;BME280;65096;50.998;7.098;2023-02-26T08:35:59;101545.63;;;3.16;47.17
76285;BME280;65096;50.998;7.098;2023-02-26T08:38:28;101544.25;;;3.40;47.58
76285;BME280;65096;50.998;7.098;2023-02-26T08:40:55;101540.03;;;3.76;44.39
76285;BME280;65096;50.998;7.098;2023-02-26T08:43:22;101535.25;;;4.01;46.73
76285;BME280;65096;50.998;7.098;2023-02-26T08:45:51;101532.38;;;4.13;45.40
76285;BME280;65096;50.998;7.098;2023-02-26T08:48:17;101549.25;;;4.28;45.10
76285;BME280;65096;50.998;7.098;2023-02-26T08:50:44;101545.59;;;4.41;44.20
76285;BME280;65096;50.998;7.098;2023-02-26T08:53:11;101554.19;;;4.81;43.44
76285;BME280;65096;50.998;7.098;2023-02-26T08:55:40;101556.75;;;4.62;43.47
76285;BME280;65096;50.998;7.098;2023-02-26T08:58:09;101559.00;;;4.94;44.26
76285;BME280;65096;50.998;7.098;2023-02-26T09:00:35;101557.38;;;5.36;43.85
76285;BME280;65096;50.998;7.098;2023-02-26T09:03:02;101548.75;;;5.54;42.46
76285;BME280;65096;50.998;7.098;2023-02-26T09:05:29;101557.03;;;5.69;40.88
76285;BME280;65096;50.998;7.098;2023-02-26T09:07:55;101558.97;;;5.75;40.33
76285;BME280;65096;50.998;7.098;2023-02-26T09:10:22;101569.38;;;6.01;42.14
76285;BME280;65096;50.998;7.098;2023-02-26T09:12:51;101572.34;;;6.12;38.34
76285;BME280;65096;50.998;7.098;2023-02-26T09:15:17;101578.28;;;6.33;40.65
76285;BME280;65096;50.998;7.098;2023-02-26T09:17:44;101578.50;;;6.38;37.53
76285;BME280;65096;50.998;7.098;2023-02-26T09:20:13;101582.47;;;6.29;38.79
76285;BME280;65096;50.998;7.098;2023-02-26T09:22:40;101582.13;;;6.44;37.69
76285;BME280;65096;50.998;7.098;2023-02-26T09:25:07;101593.06;;;6.62;38.92
76285;BME280;65096;50.998;7.098;2023-02-26T09:27:34;101578.81;;;6.94;38.08
76285;BME280;65096;50.998;7.098;2023-02-26T09:30:02;101585.56;;;7.15;38.07
76285;BME280;65096;50.998;7.098;2023-02-26T09:32:29;101591.00;;;7.49;38.33
76285;BME280;65096;50.998;7.098;2023-02-26T09:34:56;101585.25;;;7.58;36.81
76285;BME280;65096;50.998;7.098;2023-02-26T09:37:23;101582.97;;;7.92;34.74
76285;BME280;65096;50.998;7.098;2023-02-26T09:39:50;101584.28;;;8.34;37.09
76285;BME280;65096;50.998;7.098;2023-02-26T09:42:26;101599.44;;;8.86;34.32
76285;BME280;65096;50.998;7.098;2023-02-26T09:44:54;101592.53;;;9.14;32.99
76285;BME280;65096;50.998;7.098;2023-02-26T09:47:27;101598.59;;;8.85;32.46
76285;BME280;65096;50.998;7.098;2023-02-26T09:50:06;101598.97;;;8.68;34.72
76285;BME280;65096;50.998;7.098;2023-02-26T09:52:40;101611.09;;;8.73;33.12
76285;BME280;65096;50.998;7.098;2023-02-26T09:55:12;101601.69;;;8.44;34.55
76285;BME280;65096;50.998;7.098;2023-02-26T09:57:43;101618.34;;;8.29;33.62
76285;BME280;65096;50.998;7.098;2023-02-26T10:00:20;101619.88;;;8.22;33.50
76285;BME280;65096;50.998;7.098;2023-02-26T10:02:54;101624.19;;;7.97;32.80
76285;BME280;65096;50.998;7.098;2023-02-26T10:05:32;101623.00;;;7.60;33.06
76285;BME280;65096;50.998;7.098;2023-02-26T10:08:05;101637.00;;;7.45;34.28
76285;BME280;65096;50.998;7.098;2023-02-26T10:10:39;101643.84;;;7.44;33.27
76285;BME280;65096;50.998;7.098;2023-02-26T10:13:19;101647.38;;;7.23;32.80
76285;BME280;65096;50.998;7.098;2023-02-26T10:15:49;101649.22;;;7.03;33.59
76285;BME280;65096;50.998;7.098;2023-02-26T10:18:23;101653.50;;;7.03;35.04
76285;BME280;65096;50.998;7.098;2023-02-26T10:20:54;101649.84;;;6.96;35.21
76285;BME280;65096;50.998;7.098;2023-02-26T10:23:27;101654.63;;;6.87;35.90
76285;BME280;65096;50.998;7.098;2023-02-26T10:26:01;101652.25;;;6.92;35.88
76285;BME280;65096;50.998;7.098;2023-02-26T10:28:40;101651.63;;;6.99;33.73
76285;BME280;65096;50.998;7.098;2023-02-26T10:31:15;101670.09;;;6.89;33.33
76285;BME280;65096;50.998;7.098;2023-02-26T10:33:49;101665.72;;;6.86;33.51
76285;BME280;65096;50.998;7.098;2023-02-26T10:36:23;101668.69;;;6.97;33.49
76285;BME280;65096;50.998;7.098;2023-02-26T10:38:54;101663.88;;;7.06;33.30
76285;BME280;65096;50.998;7.098;2023-02-26T10:41:27;101664.06;;;7.12;32.97
76285;BME280;65096;50.998;7.098;2023-02-26T10:44:00;101661.31;;;7.06;31.94
76285;BME280;65096;50.998;7.098;2023-02-26T10:46:37;101657.81;;;7.04;31.58
76285;BME280;65096;50.998;7.098;2023-02-26T10:49:23;101669.97;;;7.33;33.62
76285;BME280;65096;50.998;7.098;2023-02-26T10:51:53;101669.22;;;7.37;32.51
76285;BME280;65096;50.998;7.098;2023-02-26T10:54:23;101668.13;;;7.54;32.05
76285;BME280;65096;50.998;7.098;2023-02-26T10:56:55;101656.53;;;7.65;31.17
76285;BME280;65096;50.998;7.098;2023-02-26T10:59:22;101676.72;;;7.80;31.02
76285;BME280;65096;50.998;7.098;2023-02-26T11:01:50;101664.97;;;7.86;30.96
76285;BME280;65096;50.998;7.098;2023-02-26T11:04:18;101666.28;;;7.73;31.01
76285;BME280;65096;50.998;7.098;2023-02-26T11:06:51;101675.47;;;7.94;31.58
76285;BME280;65096;50.998;7.098;2023-02-26T11:09:21;101663.41;;;7.91;32.24
76285;BME280;65096;50.998;7.098;2023-02-26T11:11:51;101682.38;;;7.96;32.20
76285;BME280;65096;50.998;7.098;2023-02-26T11:14:18;101681.78;;;7.77;31.33
76285;BME280;65096;50.998;7.098;2023-02-26T11:16:48;101659.13;;;7.66;32.96
76285;BME280;65096;50.998;7.098;2023-02-26T11:19:15;101677.25;;;7.71;31.49
76285;BME280;65096;50.998;7.098;2023-02-26T11:21:46;101687.13;;;7.59;31.92
76285;BME280;65096;50.998;7.098;2023-02-26T11:24:20;101686.25;;;7.33;30.83
76285;BME280;65096;50.998;7.098;2023-02-26T11:26:53;101691.66;;;7.17;31.40
76285;BME280;65096;50.998;7.098;2023-02-26T11:29:21;101689.50;;;7.06;31.55
76285;BME280;65096;50.998;7.098;2023-02-26T11:31:51;101681.91;;;6.85;30.90
76285;BME280;65096;50.998;7.098;2023-02-26T11:34:21;101697.22;;;6.62;31.50
76285;BME280;65096;50.998;7.098;2023-02-26T11:36:49;101691.50;;;6.45;31.93
76285;BME280;65096;50.998;7.098;2023-02-26T11:39:21;101689.88;;;6.47;32.71
76285;BME280;65096;50.998;7.098;2023-02-26T11:41:50;101690.25;;;6.36;32.23
76285;BME280;65096;50.998;7.098;2023-02-26T11:44:21;101665.00;;;6.22;32.94
76285;BME280;65096;50.998;7.098;2023-02-26T11:46:55;101680.97;;;6.38;33.07
76285;BME280;65096;50.998;7.098;2023-02-26T11:49:24;101686.59;;;6.51;33.49
76285;BME280;65096;50.998;7.098;2023-02-26T11:52:04;101683.22;;;6.52;32.94
76285;BME280;65096;50.998;7.098;2023-02-26T11:54:34;101681.47;;;6.51;33.27
76285;BME280;65096;50.998;7.098;2023-02-26T11:57:04;101673.56;;;6.45;32.29
76285;BME280;65096;50.998;7.098;2023-02-26T11:59:32;101676.97;;;6.46;33.54
76285;BME280;65096;50.998;7.098;2023-02-26T12:02:01;101681.31;;;6.47;33.17
76285;BME280;65096;50.998;7.098;2023-02-26T12:04:31;101682.88;;;6.43;34.24
76285;BME280;65096;50.998;7.098;2023-02-26T12:06:57;101686.41;;;6.24;33.75
76285;BME280;65096;50.998;7.098;2023-02-26T12:09:25;101680.34;;;6.22;33.79
76285;BME280;65096;50.998;7.098;2023-02-26T12:15:02;101686.41;;;5.83;33.59
76285;BME280;65096;50.998;7.098;2023-02-26T12:17:46;101679.78;;;5.88;33.72
76285;BME280;65096;50.998;7.098;2023-02-26T12:20:20;101684.22;;;5.92;34.09
76285;BME280;65096;50.998;7.098;2023-02-26T12:23:04;101684.97;;;5.90;33.76
76285;BME280;65096;50.998;7.098;2023-02-26T12:25:46;101688.16;;;5.84;33.75
76285;BME280;65096;50.998;7.098;2023-02-26T12:28:52;101680.47;;;5.64;33.25
76285;BME280;65096;50.998;7.098;2023-02-26T12:31:50;101682.63;;;5.55;33.06
76285;BME280;65096;50.998;7.098;2023-02-26T12:37:44;101679.88;;;5.30;34.66
76285;BME280;65096;50.998;7.098;2023-02-26T12:40:29;101685.00;;;5.50;33.43
76285;BME280;65096;50.998;7.098;2023-02-26T12:43:04;101683.78;;;5.61;33.59
76285;BME280;65096;50.998;7.098;2023-02-26T12:45:43;101662.81;;;5.70;33.32
76285;BME280;65096;50.998;7.098;2023-02-26T12:51:02;101667.56;;;6.02;33.00
76285;BME280;65096;50.998;7.098;2023-02-26T12:54:01;101664.50;;;6.12;32.75
76285;BME280;65096;50.998;7.098;2023-02-26T12:56:44;101661.47;;;6.20;33.31
76285;BME280;65096;50.998;7.098;2023-02-26T12:59:27;101659.63;;;6.39;33.34
76285;BME280;65096;50.998;7.098;2023-02-26T13:02:12;101664.75;;;6.39;31.25
76285;BME280;65096;50.998;7.098;2023-02-26T13:05:07;101669.94;;;6.62;32.21
76285;BME280;65096;50.998;7.098;2023-02-26T13:08:01;101656.53;;;6.69;30.67
76285;BME280;65096;50.998;7.098;2023-02-26T13:10:39;101659.22;;;6.72;30.99
76285;BME280;65096;50.998;7.098;2023-02-26T13:13:33;101666.53;;;6.85;31.33
76285;BME280;65096;50.998;7.098;2023-02-26T13:16:14;101651.25;;;6.88;32.06
76285;BME280;65096;50.998;7.098;2023-02-26T13:18:52;101661.31;;;7.06;31.76
76285;BME280;65096;50.998;7.098;2023-02-26T13:21:25;101666.84;;;7.18;31.37